Time;durP1;ratioP1;P1;durP2;ratioP2;P2;SDS_P1;SDS_P2;PMS_P1;PMS_P2;Temp;Humidity;BMP_temperature;BMP_pressure;BME280_temperature;BME280_humidity;BME280_pressure;Samples;Min_cycle;Max_cycle;Signal;HPM_P1;HPM_P2
2021/11/08 00:02:26;;;;;;;;;36.00;32.25;;;;;10.15;67.65;102062.53;4980073;28;45236;-73
2021/11/08 00:04:51;;;;;;;;;42.00;36.00;;;;;10.13;67.75;102069.53;4976578;28;46652;-72
2021/11/08 00:07:25;;;;;;;;;41.50;30.25;;;;;10.08;67.92;102054.38;4992242;28;45355;-72
2021/11/08 00:09:51;;;;;;;;;37.50;29.50;;;;;10.10;67.86;102045.66;4995824;28;45492;-72
2021/11/08 00:12:17;;;;;;;;;39.25;30.25;;;;;10.08;68.06;102041.19;4993389;28;46464;-72
2021/11/08 00:14:44;;;;;;;;;35.00;26.50;;;;;10.10;67.88;102048.28;4976143;28;46891;-72
2021/11/08 00:20:05;;;;;;;;;38.50;25.00;;;;;10.07;67.85;102045.59;4974203;28;45209;-72
2021/11/08 00:22:39;;;;;;;;;31.00;26.25;;;;;10.05;67.96;102046.34;4979660;28;45544;-72
2021/11/08 00:25:04;;;;;;;;;36.00;28.25;;;;;10.04;67.87;102057.78;4970141;28;47424;-72
2021/11/08 00:27:33;;;;;;;;;29.50;25.25;;;;;9.89;67.98;102034.41;4978838;28;45390;-72
2021/11/08 00:29:58;;;;;;;;;31.75;25.50;;;;;9.98;68.13;102051.44;4969182;28;45275;-72
2021/11/08 00:32:25;;;;;;;;;34.50;24.75;;;;;9.98;67.99;102047.91;4976053;28;54061;-73
2021/11/08 00:34:51;;;;;;;;;32.00;27.75;;;;;9.98;68.04;102056.72;4985444;28;46774;-73
2021/11/08 00:37:16;;;;;;;;;35.75;29.00;;;;;9.96;67.88;102058.41;4995457;28;45427;-73
2021/11/08 00:39:42;;;;;;;;;31.25;27.50;;;;;9.96;68.11;102042.59;4995277;28;45385;-73
2021/11/08 00:42:07;;;;;;;;;32.50;25.75;;;;;9.93;68.27;102050.38;4983314;28;45715;-72
2021/11/08 00:44:33;;;;;;;;;28.25;25.75;;;;;9.94;67.88;102054.81;4976034;28;56287;-72
2021/11/08 00:46:58;;;;;;;;;34.75;29.25;;;;;9.89;68.30;102047.59;4975689;28;45575;-72
2021/11/08 00:49:25;;;;;;;;;37.25;29.25;;;;;9.91;68.52;102038.91;4988761;28;46558;-72
2021/11/08 00:51:50;;;;;;;;;32.00;25.50;;;;;9.92;68.19;102040.69;4995246;28;45591;-72
2021/11/08 00:54:16;;;;;;;;;27.00;19.75;;;;;9.91;68.25;102048.56;4968041;28;49470;-73
2021/11/08 00:56:44;;;;;;;;;32.75;23.50;;;;;9.92;68.35;102055.63;4989856;28;45365;-72
2021/11/08 00:59:11;;;;;;;;;22.75;18.50;;;;;9.91;68.53;102061.75;4994986;28;45315;-72
2021/11/08 01:01:36;;;;;;;;;25.75;23.25;;;;;9.87;68.41;102046.66;4995412;28;45369;-72
2021/11/08 01:04:02;;;;;;;;;27.00;22.25;;;;;9.90;68.12;102065.22;4977719;28;47146;-72
2021/11/08 01:06:27;;;;;;;;;24.00;19.50;;;;;9.89;68.18;102063.44;4977690;28;45283;-72
2021/11/08 01:08:53;;;;;;;;;35.75;23.00;;;;;9.86;68.40;102063.34;4979300;28;45286;-72
2021/11/08 01:11:18;;;;;;;;;28.50;22.25;;;;;9.83;68.42;102058.84;4995786;28;53931;-72
2021/11/08 01:13:43;;;;;;;;;36.00;25.25;;;;;9.82;68.77;102062.34;4995025;28;60344;-73
2021/11/08 01:16:10;;;;;;;;;31.75;20.00;;;;;9.82;68.71;102069.34;4978880;28;47475;-72
2021/11/08 01:18:35;;;;;;;;;30.25;20.00;;;;;9.82;68.46;102069.34;4994153;28;45754;-74
2021/11/08 01:21:01;;;;;;;;;28.50;21.50;;;;;9.82;68.50;102064.06;4982891;28;45206;-74
2021/11/08 01:23:27;;;;;;;;;22.00;21.00;;;;;9.77;68.51;102048.09;4993789;28;46454;-73
2021/11/08 01:25:58;;;;;;;;;28.75;22.00;;;;;9.83;68.35;102060.59;4981479;28;45624;-73
2021/11/08 01:28:31;;;;;;;;;21.25;18.25;;;;;9.80;68.25;102050.84;4981716;28;45339;-74
2021/11/08 01:30:57;;;;;;;;;31.75;23.25;;;;;9.79;68.40;102042.84;4997735;28;45621;-74
2021/11/08 01:33:23;;;;;;;;;30.25;20.25;;;;;9.81;68.17;102051.75;4997968;28;46751;-74
2021/11/08 01:36:09;;;;;;;;;27.75;20.75;;;;;9.78;68.60;102047.25;4991214;28;45437;-74
2021/11/08 01:41:06;;;;;;;;;23.25;18.25;;;;;9.75;68.37;102047.16;4978912;28;45410;-71
2021/11/08 01:43:33;;;;;;;;;20.75;17.50;;;;;9.77;68.25;102050.72;4990162;28;46074;-71
2021/11/08 01:45:59;;;;;;;;;21.00;19.00;;;;;9.76;68.66;102050.69;4988868;28;45577;-74
2021/11/08 01:48:24;;;;;;;;;24.25;18.75;;;;;9.76;68.42;102045.41;4988403;28;46499;-71
2021/11/08 01:50:50;;;;;;;;;29.00;19.00;;;;;9.74;68.33;102042.69;4984889;28;45515;-71
2021/11/08 01:53:15;;;;;;;;;24.00;18.75;;;;;9.70;68.39;102035.56;4978516;28;46213;-74
2021/11/08 01:55:40;;;;;;;;;31.00;18.25;;;;;9.65;68.60;102037.13;4997071;28;52827;-74
2021/11/08 01:58:06;;;;;;;;;28.25;19.50;;;;;9.69;68.73;102036.38;4982788;28;48852;-72
2021/11/08 02:00:32;;;;;;;;;28.50;23.25;;;;;9.71;68.55;102034.69;4997559;28;45309;-74
2021/11/08 02:02:57;;;;;;;;;22.25;19.75;;;;;9.69;68.63;102032.03;4997625;28;47334;-74
2021/11/08 02:05:23;;;;;;;;;29.00;21.00;;;;;9.67;68.49;102027.53;4997059;28;45373;-71
2021/11/08 02:07:49;;;;;;;;;24.25;18.50;;;;;9.66;68.30;102028.38;4974939;28;55323;-71
2021/11/08 02:10:15;;;;;;;;;26.25;19.25;;;;;9.61;68.25;102025.56;4979692;28;45624;-71
2021/11/08 02:12:41;;;;;;;;;28.25;18.25;;;;;9.58;68.49;102016.66;4980444;28;47301;-72
2021/11/08 02:15:08;;;;;;;;;22.25;17.00;;;;;9.58;68.14;102024.56;4978370;28;45307;-74
2021/11/08 02:17:34;;;;;;;;;20.50;17.25;;;;;9.56;68.43;102024.53;4981129;28;45422;-74
2021/11/08 02:20:19;;;;;;;;;26.50;19.00;;;;;9.51;68.47;102023.47;4993213;28;45545;-74
2021/11/08 02:22:44;;;;;;;;;25.00;18.50;;;;;9.53;68.60;102028.78;4978055;28;46491;-73
2021/11/08 02:25:10;;;;;;;;;21.00;18.25;;;;;9.52;68.40;102027.00;4979070;28;45312;-73
2021/11/08 02:27:38;;;;;;;;;21.25;17.25;;;;;9.50;68.26;102028.69;4984102;28;45474;-73
2021/11/08 02:30:05;;;;;;;;;20.75;16.00;;;;;9.49;68.42;102027.81;4978469;28;45406;-73
2021/11/08 02:32:31;;;;;;;;;26.25;18.00;;;;;9.46;68.48;102025.03;4978247;28;47969;-73
2021/11/08 02:34:56;;;;;;;;;25.25;17.00;;;;;9.45;68.46;102013.59;4986797;28;45359;-73
2021/11/08 02:37:22;;;;;;;;;28.00;16.50;;;;;9.43;68.80;102015.31;4997452;28;45466;-73
2021/11/08 02:39:50;;;;;;;;;20.75;16.25;;;;;9.42;68.62;102017.88;4997315;28;45517;-74
2021/11/08 02:42:15;;;;;;;;;26.25;17.00;;;;;9.40;68.64;102030.09;4985992;28;46565;-74
2021/11/08 02:44:41;;;;;;;;;17.25;13.75;;;;;9.34;68.34;102009.69;4977908;28;46953;-73
2021/11/08 02:47:06;;;;;;;;;19.00;15.00;;;;;9.37;68.63;102014.16;4977181;28;55883;-74
2021/11/08 02:49:34;;;;;;;;;20.00;17.25;;;;;9.38;68.34;102026.53;4990261;28;45545;-73
2021/11/08 02:52:06;;;;;;;;;15.50;13.25;;;;;9.35;68.78;102029.94;4996496;28;46500;-73
2021/11/08 02:54:41;;;;;;;;;24.25;13.50;;;;;9.32;68.49;102027.22;4997385;28;45531;-73
2021/11/08 02:57:06;;;;;;;;;23.00;17.50;;;;;9.28;68.82;102021.78;4980440;28;45251;-73
2021/11/08 02:59:35;;;;;;;;;19.00;16.50;;;;;9.30;68.80;102026.25;4989100;28;45450;-73
2021/11/08 03:02:01;;;;;;;;;21.25;16.75;;;;;9.22;68.63;102025.09;4996645;28;46710;-73
2021/11/08 03:04:33;;;;;;;;;19.00;15.75;;;;;9.29;68.72;102031.47;4978202;28;45376;-73
2021/11/08 03:06:58;;;;;;;;;18.50;16.00;;;;;9.23;68.61;102026.00;4977496;28;45204;-73
2021/11/08 03:09:30;;;;;;;;;24.75;16.75;;;;;9.26;68.79;102034.88;4978487;28;45519;-73
2021/11/08 03:11:57;;;;;;;;;29.50;20.50;;;;;9.21;68.70;102028.53;4983349;28;46837;-73
2021/11/08 03:14:25;;;;;;;;;24.25;19.25;;;;;9.23;68.67;102039.16;4994157;28;45279;-73
2021/11/08 03:16:56;;;;;;;;;18.75;17.25;;;;;9.21;68.80;102036.44;4993565;28;45282;-73
2021/11/08 03:19:36;;;;;;;;;20.25;16.75;;;;;9.24;69.03;102047.13;4977054;28;45533;-73
2021/11/08 03:22:10;;;;;;;;;23.50;16.00;;;;;9.23;69.13;102039.16;4988234;28;46765;-73
2021/11/08 03:24:50;;;;;;;;;23.50;16.50;;;;;9.31;69.03;102043.84;4978866;28;45279;-73
2021/11/08 03:27:37;;;;;;;;;17.00;12.25;;;;;9.28;69.10;102032.31;4981001;28;45455;-73
2021/11/08 03:30:05;;;;;;;;;21.00;13.75;;;;;9.33;68.67;102044.81;4992641;28;45413;-73
2021/11/08 03:32:30;;;;;;;;;17.50;11.50;;;;;9.32;68.71;102039.47;4977174;28;47422;-73
2021/11/08 03:35:00;;;;;;;;;16.75;13.00;;;;;9.33;69.07;102049.19;4976025;28;45295;-73
2021/11/08 03:37:27;;;;;;;;;21.50;14.00;;;;;9.28;68.64;102046.41;4993570;28;45463;-73
2021/11/08 03:39:52;;;;;;;;;17.25;15.00;;;;;9.31;68.74;102050.88;4977250;28;45227;-73
2021/11/08 03:42:18;;;;;;;;;17.00;14.50;;;;;9.31;68.92;102049.13;4976379;28;58481;-73
2021/11/08 03:44:44;;;;;;;;;15.75;13.00;;;;;9.32;68.93;102042.09;4980994;28;45491;-73
2021/11/08 03:47:10;;;;;;;;;23.50;17.00;;;;;9.32;69.17;102063.19;4978016;28;45454;-73
2021/11/08 03:49:35;;;;;;;;;25.00;16.50;;;;;9.32;69.27;102052.66;4995520;28;45606;-73
2021/11/08 03:52:00;;;;;;;;;24.75;18.50;;;;;9.26;69.16;102037.50;4989803;28;59656;-73
2021/11/08 03:54:27;;;;;;;;;25.75;20.00;;;;;9.31;69.75;102051.75;4985266;28;45477;-73
2021/11/08 03:56:52;;;;;;;;;22.50;18.00;;;;;9.29;69.29;102048.19;4995786;28;45384;-74
2021/11/08 03:59:18;;;;;;;;;19.75;17.00;;;;;9.25;69.02;102032.19;4988414;28;54505;-73
2021/11/08 04:01:44;;;;;;;;;21.50;17.75;;;;;9.28;69.27;102035.84;4976360;28;46294;-73
2021/11/08 04:04:09;;;;;;;;;27.50;16.75;;;;;9.28;69.22;102029.69;4990624;28;45472;-73
2021/11/08 04:06:35;;;;;;;;;25.25;16.00;;;;;9.27;69.51;102027.88;4995348;28;45747;-73
2021/11/08 04:09:00;;;;;;;;;23.50;19.75;;;;;9.21;69.08;102023.28;4996182;28;45612;-73
2021/11/08 04:11:27;;;;;;;;;20.00;15.50;;;;;9.18;69.35;102029.34;4980770;28;46480;-73
2021/11/08 04:13:53;;;;;;;;;25.00;16.25;;;;;9.21;68.82;102033.81;4989829;28;45199;-73
2021/11/08 04:16:19;;;;;;;;;30.50;19.50;;;;;9.18;68.91;102036.38;4994497;28;45341;-74
2021/11/08 04:18:52;;;;;;;;;18.00;16.75;;;;;9.16;68.97;102032.75;4976526;28;45283;-73
2021/11/08 04:21:19;;;;;;;;;22.25;18.50;;;;;9.14;68.86;102032.72;4978824;28;47102;-73
2021/11/08 04:23:44;;;;;;;;;21.25;13.00;;;;;9.12;68.58;102044.94;4977195;28;45469;-73
2021/11/08 04:26:14;;;;;;;;;23.50;19.00;;;;;9.10;68.68;102036.06;4984918;28;55597;-73
2021/11/08 04:28:39;;;;;;;;;20.75;18.00;;;;;9.08;68.56;102040.41;4976413;28;45489;-73
2021/11/08 04:31:05;;;;;;;;;18.50;13.50;;;;;9.07;68.72;102041.25;4982734;28;49158;-73
2021/11/08 04:33:45;;;;;;;;;21.50;16.50;;;;;9.06;68.80;102041.19;4994933;28;48585;-73
2021/11/08 04:36:34;;;;;;;;;20.25;17.50;;;;;9.05;68.49;102047.28;4995794;28;45495;-73
2021/11/08 04:41:42;;;;;;;;;14.25;10.00;;;;;9.06;68.89;102043.84;4979627;28;45942;-73
2021/11/08 05:32:21;;;;;;;;;22.75;17.25;;;;;9.61;69.11;102046.66;4980514;28;45716;-73
2021/11/08 05:34:46;;;;;;;;;23.25;17.75;;;;;9.63;69.00;102050.25;4998227;28;47321;-73
2021/11/08 05:37:11;;;;;;;;;21.75;17.25;;;;;9.65;68.79;102053.84;4997383;28;50025;-73
2021/11/08 05:39:39;;;;;;;;;24.75;20.00;;;;;9.67;68.87;102057.41;4989833;28;45842;-73
2021/11/08 05:42:05;;;;;;;;;16.75;16.75;;;;;9.70;69.04;102056.66;4998063;28;45533;-73
2021/11/08 05:44:32;;;;;;;;;19.00;18.25;;;;;9.73;68.94;102055.84;4995844;28;47270;-73
2021/11/08 05:46:57;;;;;;;;;27.00;18.75;;;;;9.71;68.88;102066.34;4983352;28;45324;-74
2021/11/08 05:49:23;;;;;;;;;23.50;17.75;;;;;9.69;69.04;102053.13;4997414;28;45892;-73
2021/11/08 05:51:48;;;;;;;;;18.75;15.25;;;;;9.66;68.91;102054.75;4996908;28;54134;-73
2021/11/08 05:54:14;;;;;;;;;22.75;18.25;;;;;9.61;68.92;102054.56;4990773;28;61247;-73
2021/11/08 06:51:04;;;;;;;;;25.50;18.00;;;;;9.24;69.56;102128.81;4976368;28;45327;-74
2021/11/08 06:53:31;;;;;;;;;20.75;16.25;;;;;9.30;69.56;102126.41;4976594;28;45430;-75
2021/11/08 06:55:58;;;;;;;;;19.00;17.75;;;;;9.40;69.65;102130.28;4976327;28;45268;-75
2021/11/08 06:58:26;;;;;;;;;23.25;17.75;;;;;9.43;69.46;102128.66;4976628;28;47514;-76
2021/11/08 07:00:51;;;;;;;;;19.00;17.00;;;;;9.50;69.42;102136.78;4977558;28;45473;-73
2021/11/08 07:03:17;;;;;;;;;21.25;17.00;;;;;9.53;69.33;102131.59;4975342;28;45366;-73
2021/11/08 07:05:42;;;;;;;;;23.25;17.50;;;;;9.55;69.55;102129.94;4975278;28;45571;-73
2021/11/08 07:08:08;;;;;;;;;20.50;16.50;;;;;9.56;69.40;102123.81;4975537;28;46726;-73
2021/11/08 07:10:33;;;;;;;;;21.75;18.75;;;;;9.61;69.56;102135.44;4976810;28;45488;-73
2021/11/08 07:12:59;;;;;;;;;17.75;15.75;;;;;9.64;69.36;102140.78;4977107;28;45410;-73
2021/11/08 07:15:25;;;;;;;;;28.75;21.25;;;;;9.66;69.54;102139.13;4975345;28;45528;-73
2021/11/08 07:17:50;;;;;;;;;23.00;17.50;;;;;9.64;69.60;102140.78;4974731;28;46693;-73
2021/11/08 07:20:17;;;;;;;;;28.75;22.00;;;;;9.65;69.48;102145.25;4975931;28;46425;-73
2021/11/08 07:22:44;;;;;;;;;28.25;23.25;;;;;9.67;69.35;102140.91;4977248;28;45453;-74
2021/11/08 07:25:10;;;;;;;;;26.25;26.25;;;;;9.63;69.23;102137.25;4976321;28;47208;-74
2021/11/08 07:27:35;;;;;;;;;27.00;25.25;;;;;9.66;69.42;102147.94;4976197;28;47254;-74
2021/11/08 07:30:01;;;;;;;;;30.50;24.25;;;;;9.67;69.39;102149.72;4974380;28;45522;-73
2021/11/08 07:32:35;;;;;;;;;36.75;28.50;;;;;9.67;69.27;102147.09;4966253;28;45573;-72
2021/11/08 07:35:00;;;;;;;;;36.25;28.75;;;;;9.74;69.49;102156.09;4974740;28;45446;-73
2021/11/08 07:37:26;;;;;;;;;34.75;26.00;;;;;9.79;69.64;102151.91;4974894;28;46145;-72
2021/11/08 07:39:51;;;;;;;;;29.50;28.00;;;;;9.83;69.36;102156.44;4972873;28;45434;-72
2021/11/08 07:42:17;;;;;;;;;36.00;26.75;;;;;9.83;69.16;102167.00;4975964;28;45978;-72
2021/11/08 07:44:42;;;;;;;;;24.75;21.00;;;;;9.86;69.14;102172.41;4972740;28;45541;-72
2021/11/08 07:47:08;;;;;;;;;28.00;21.25;;;;;9.87;69.16;102166.25;4970786;28;46548;-72
2021/11/08 07:49:33;;;;;;;;;22.50;20.00;;;;;9.89;68.99;102164.56;4970317;28;45646;-73
2021/11/08 07:51:59;;;;;;;;;32.00;23.75;;;;;9.92;69.43;102171.72;4973376;28;48816;-72
2021/11/08 07:54:24;;;;;;;;;24.75;22.00;;;;;9.93;69.05;102171.75;4973701;28;45561;-72
2021/11/08 07:56:50;;;;;;;;;27.50;20.25;;;;;9.98;69.17;102169.28;4972663;28;45626;-73
2021/11/08 07:59:16;;;;;;;;;30.00;22.00;;;;;10.03;68.94;102166.81;4972762;28;45923;-73
2021/11/08 08:01:42;;;;;;;;;26.25;19.75;;;;;10.07;69.00;102168.72;4972992;28;45531;-72
2021/11/08 08:04:07;;;;;;;;;26.25;20.75;;;;;10.04;68.99;102169.50;4974410;28;45445;-72
2021/11/08 08:06:37;;;;;;;;;24.75;22.50;;;;;10.09;68.93;102164.38;4970655;28;53912;-72
2021/11/08 08:09:06;;;;;;;;;28.25;24.00;;;;;10.11;68.77;102167.94;4960910;28;46131;-73
2021/11/08 08:11:31;;;;;;;;;36.25;27.25;;;;;10.10;69.23;102166.16;4961056;28;46824;-72
2021/11/08 08:13:57;;;;;;;;;29.25;25.50;;;;;10.13;68.97;102167.19;4961425;28;45599;-73
2021/11/08 08:16:22;;;;;;;;;34.00;24.75;;;;;10.15;68.58;102162.84;4960138;28;46100;-72
2021/11/08 08:18:49;;;;;;;;;32.75;30.00;;;;;10.23;68.94;102171.03;4959676;28;57784;-72
2021/11/08 08:21:15;;;;;;;;;35.25;24.75;;;;;10.34;69.06;102182.88;4956901;28;47235;-72
2021/11/08 08:27:04;;;;;;;;;26.50;23.00;;;;;10.44;68.42;102177.06;4976943;28;45514;-72
2021/11/08 08:36:21;;;;;;;;;26.50;21.75;;;;;10.51;68.48;102186.06;4976270;28;45493;-72
2021/11/08 08:45:57;;;;;;;;;25.50;24.00;;;;;10.55;68.18;102187.09;4977387;28;45524;-72
2021/11/08 08:56:11;;;;;;;;;27.75;23.00;;;;;10.56;68.48;102192.41;4974151;28;45891;-72
2021/11/08 09:06:14;;;;;;;;;25.00;21.00;;;;;10.56;68.54;102202.97;4975280;28;45621;-71
2021/11/08 09:16:17;;;;;;;;;37.75;28.75;;;;;10.52;68.76;102194.88;4978190;28;45520;-72
2021/11/08 09:26:15;;;;;;;;;20.75;20.75;;;;;10.53;68.61;102204.59;4975422;28;45581;-71
2021/11/08 09:32:40;;;;;;;;;20.50;19.75;;;;;10.54;68.72;102203.75;4973099;28;45534;-72
2021/11/08 09:35:13;;;;;;;;;29.50;22.25;;;;;10.55;68.99;102202.94;4976952;28;45484;-71
2021/11/08 09:41:07;;;;;;;;;26.25;24.25;;;;;10.58;68.79;102193.34;4972911;28;45730;-72
2021/11/08 09:47:17;;;;;;;;;26.00;23.75;;;;;10.64;68.72;102192.63;4971942;28;45873;-72
2021/11/08 09:57:40;;;;;;;;;23.75;19.25;;;;;10.94;68.54;102196.28;4975520;28;45385;-71
2021/11/08 10:08:02;;;;;;;;;24.75;19.75;;;;;11.24;68.21;102188.41;4976396;28;45545;-71
2021/11/08 10:13:25;;;;;;;;;27.75;21.00;;;;;11.35;67.85;102187.81;5035787;22;45423;-72
2021/11/08 10:15:53;;;;;;;;;28.50;24.75;;;;;11.45;67.74;102193.41;5025242;28;45953;-70
2021/11/08 10:18:19;;;;;;;;;28.75;23.75;;;;;11.52;67.73;102181.25;5023251;28;45584;-70
2021/11/08 10:20:46;;;;;;;;;34.00;26.00;;;;;11.55;67.78;102170.75;5029534;28;46310;-73
2021/11/08 10:23:13;;;;;;;;;35.25;25.00;;;;;11.65;67.75;102182.50;5029558;28;45468;-70
2021/11/08 10:25:40;;;;;;;;;29.50;23.50;;;;;11.74;66.59;102177.47;5033641;28;45406;-72
2021/11/08 10:28:15;;;;;;;;;25.25;22.75;;;;;11.83;67.09;102180.41;5034987;28;45997;-72
2021/11/08 10:30:42;;;;;;;;;21.50;18.25;;;;;11.92;66.93;102180.63;5021386;28;47577;-72
2021/11/08 10:33:13;;;;;;;;;28.00;24.00;;;;;12.02;66.37;102182.69;5030178;28;45482;-72
2021/11/08 10:35:50;;;;;;;;;21.00;17.00;;;;;12.10;66.29;102182.91;5032445;28;45599;-72
2021/11/08 10:38:17;;;;;;;;;23.50;17.75;;;;;12.12;65.94;102178.53;5031872;28;45207;-73
2021/11/08 10:41:07;;;;;;;;;22.25;21.50;;;;;12.18;66.04;102169.84;5023965;28;46637;-73
2021/11/08 10:43:37;;;;;;;;;17.75;16.25;;;;;12.21;66.08;102176.13;5027294;28;45546;-72
2021/11/08 10:46:08;;;;;;;;;24.00;18.50;;;;;12.25;65.89;102177.09;5023882;28;46008;-72
2021/11/08 10:48:38;;;;;;;;;31.50;23.00;;;;;12.28;65.91;102171.88;5032362;28;45609;-73
2021/11/08 10:51:05;;;;;;;;;25.00;19.33;;;;;12.30;65.62;102171.09;5031399;28;46557;-74
2021/11/08 10:53:31;;;;;;;;;23.50;19.00;;;;;12.31;65.72;102171.97;5021938;28;45554;-73
2021/11/08 10:56:06;;;;;;;;;23.33;17.33;;;;;12.31;64.46;102175.50;5019615;28;45980;-73
2021/11/08 10:58:31;;;;;;;;;21.33;15.00;;;;;12.30;63.92;102171.09;5021928;28;45362;-73
2021/11/08 11:00:59;;;;;;;;;19.67;15.33;;;;;12.31;65.04;102169.31;5022098;28;64208;-73
2021/11/08 11:03:25;;;;;;;;;28.33;20.33;;;;;12.31;65.06;102164.03;5030651;28;45846;-73
2021/11/08 11:05:59;;;;;;;;;23.33;17.33;;;;;12.30;65.08;102155.19;5025745;28;45476;-73
2021/11/08 11:08:25;;;;;;;;;16.00;14.33;;;;;12.27;64.58;102156.84;5047269;28;45585;-73
2021/11/08 11:10:53;;;;;;;;;21.00;13.33;;;;;12.30;64.71;102156.91;5034041;28;46502;-73
2021/11/08 11:13:19;;;;;;;;;18.33;11.67;;;;;12.30;64.54;102165.78;5030721;28;45483;-73
2021/11/08 11:15:44;;;;;;;;;12.33;10.00;;;;;12.27;64.47;102168.34;5028898;28;45581;-73
2021/11/08 11:18:11;;;;;;;;;9.33;9.33;;;;;12.35;64.15;102170.28;5030780;28;45657;-74
2021/11/08 11:20:37;;;;;;;;;18.00;12.00;;;;;12.38;64.10;102168.59;5019155;28;46966;-74
2021/11/08 11:23:15;;;;;;;;;16.67;11.67;;;;;12.42;64.06;102156.34;5026568;28;45584;-72
2021/11/08 11:25:42;;;;;;;;;11.33;9.00;;;;;12.41;63.88;102158.09;5025910;28;45431;-72
2021/11/08 11:28:08;;;;;;;;;18.00;8.33;;;;;12.42;63.62;102148.41;5021691;28;45539;-71
2021/11/08 11:30:39;;;;;;;;;11.33;6.67;;;;;12.49;62.97;102163.56;5021769;28;46730;-72
2021/11/08 11:33:08;;;;;;;;;6.00;4.00;;;;;12.53;63.31;102158.41;5026084;28;45380;-72
2021/11/08 11:35:45;;;;;;;;;9.33;4.00;;;;;12.55;61.77;102158.41;5019473;28;45250;-71
2021/11/08 11:38:23;;;;;;;;;12.67;6.00;;;;;12.57;62.45;102152.31;5022753;28;45358;-72
2021/11/08 11:40:55;;;;;;;;;13.33;5.00;;;;;12.62;62.24;102154.16;5018428;28;45424;-72
2021/11/08 11:43:29;;;;;;;;;9.67;4.00;;;;;12.61;62.37;102139.13;5025327;28;45386;-72
2021/11/08 11:45:55;;;;;;;;;6.33;5.00;;;;;12.67;62.26;102131.31;5024637;28;45724;-72
2021/11/08 11:48:26;;;;;;;;;8.33;5.00;;;;;12.71;62.00;102138.47;5025416;28;45634;-72
2021/11/08 11:50:51;;;;;;;;;8.67;5.67;;;;;12.73;61.96;102135.03;5020518;28;46014;-71
2021/11/08 11:53:17;;;;;;;;;10.00;5.00;;;;;12.74;61.63;102127.97;5022111;28;45460;-71
2021/11/08 11:55:42;;;;;;;;;6.67;5.67;;;;;12.77;61.85;102130.66;5024639;28;45273;-72
2021/11/08 11:58:08;;;;;;;;;15.00;6.00;;;;;12.80;61.45;102122.81;5018079;28;45544;-72
2021/11/08 12:00:38;;;;;;;;;9.33;5.00;;;;;12.91;61.93;102131.00;5015930;28;62724;-72
2021/11/08 12:03:04;;;;;;;;;14.33;4.67;;;;;12.94;61.28;102123.97;5034457;28;45245;-72
2021/11/08 12:05:30;;;;;;;;;5.33;3.00;;;;;12.97;60.23;102129.38;5021600;28;45923;-73
2021/11/08 12:08:00;;;;;;;;;14.00;6.00;;;;;12.97;60.89;102112.56;5017703;28;45483;-72
2021/11/08 12:10:26;;;;;;;;;13.33;5.67;;;;;13.04;61.13;102111.81;5014594;28;46731;-72
2021/11/08 12:12:52;;;;;;;;;4.00;2.67;;;;;13.06;60.95;102118.97;5016162;28;45467;-72
2021/11/08 12:15:27;;;;;;;;;8.00;3.33;;;;;13.04;59.76;102110.06;5025852;28;45348;-72
2021/11/08 12:17:53;;;;;;;;;5.67;2.00;;;;;13.08;59.60;102113.69;5028411;28;45520;-72
2021/11/08 12:20:24;;;;;;;;;7.00;3.33;;;;;13.05;59.36;102103.94;5014648;28;60006;-71
2021/11/08 12:22:49;;;;;;;;;5.33;4.00;;;;;13.10;59.37;102104.00;5015454;28;46198;-72
2021/11/08 12:25:17;;;;;;;;;5.00;3.67;;;;;13.17;59.44;102097.09;5006823;28;45469;-73
2021/11/08 12:27:52;;;;;;;;;12.33;3.33;;;;;13.20;59.71;102105.09;5001636;28;45628;-73
2021/11/08 12:30:34;;;;;;;;;12.00;4.00;;;;;13.26;59.40;102097.28;5033921;28;46630;-72
2021/11/08 12:33:05;;;;;;;;;4.67;3.67;;;;;13.32;59.38;102095.66;5033767;28;45522;-72
2021/11/08 12:35:33;;;;;;;;;10.33;3.33;;;;;13.36;57.94;102091.28;5023937;28;45444;-72
2021/11/08 12:37:59;;;;;;;;;7.00;4.00;;;;;13.38;58.86;102083.41;5021572;28;45203;-72
2021/11/08 12:40:28;;;;;;;;;10.67;5.33;;;;;13.48;58.73;102085.38;5022596;28;46358;-72
2021/11/08 12:42:54;;;;;;;;;11.33;5.00;;;;;13.62;58.77;102079.44;5027849;28;45546;-72
2021/11/08 12:45:29;;;;;;;;;13.33;4.67;;;;;13.72;58.78;102068.97;5026785;28;45469;-72
2021/11/08 12:48:06;;;;;;;;;6.00;4.00;;;;;13.90;59.00;102077.25;5026642;28;45442;-72
2021/11/08 12:50:34;;;;;;;;;5.33;3.00;;;;;14.00;55.51;102076.53;5026602;28;47913;-71
2021/11/08 12:53:00;;;;;;;;;7.67;5.00;;;;;14.18;57.91;102069.78;5026035;28;45980;-74
2021/11/08 12:55:25;;;;;;;;;4.00;4.00;;;;;14.31;57.93;102067.31;5024531;28;45492;-73
2021/11/08 12:57:55;;;;;;;;;4.00;4.00;;;;;14.40;58.00;102070.13;5020222;28;45542;-73
2021/11/08 13:00:26;;;;;;;;;8.67;5.33;;;;;14.44;58.41;102063.09;5025923;28;45600;-75
2021/11/08 13:03:00;;;;;;;;;2.67;2.33;;;;;14.43;57.17;102069.25;5029584;28;45289;-74
2021/11/08 13:05:31;;;;;;;;;5.67;2.67;;;;;14.42;56.80;102076.34;5024867;28;45498;-74
2021/11/08 13:07:59;;;;;;;;;8.67;2.67;;;;;14.38;57.21;102076.25;5025260;28;45943;-73
2021/11/08 13:10:30;;;;;;;;;6.00;3.00;;;;;14.33;57.24;102067.38;5031012;28;47635;-73
2021/11/08 13:12:55;;;;;;;;;5.33;3.00;;;;;14.21;57.16;102056.53;5027975;28;45476;-73
2021/11/08 13:15:23;;;;;;;;;4.33;2.33;;;;;14.19;56.79;102066.25;5025172;28;46494;-74
2021/11/08 13:17:50;;;;;;;;;8.33;3.67;;;;;14.09;54.86;102070.50;5026984;28;45554;-74
2021/11/08 13:20:16;;;;;;;;;4.33;3.00;;;;;13.98;56.94;102057.06;5021942;28;47210;-72
2021/11/08 13:22:43;;;;;;;;;4.33;2.33;;;;;13.93;56.97;102060.50;5030132;28;45953;-73
2021/11/08 13:25:17;;;;;;;;;2.67;2.00;;;;;13.88;57.57;102057.75;5029792;28;45606;-75
2021/11/08 13:27:45;;;;;;;;;4.33;2.00;;;;;13.85;57.50;102065.69;5035264;28;45455;-73
2021/11/08 13:30:11;;;;;;;;;3.67;3.00;;;;;13.82;57.77;102058.56;5027491;28;47732;-73
2021/11/08 13:32:36;;;;;;;;;6.00;3.00;;;;;13.92;57.78;102072.88;5030539;28;46018;-74
2021/11/08 13:35:10;;;;;;;;;2.67;2.00;;;;;14.01;57.68;102069.47;5024768;28;51716;-72
2021/11/08 13:37:40;;;;;;;;;4.00;3.00;;;;;14.10;56.67;102070.53;5021966;28;45587;-73
2021/11/08 13:40:17;;;;;;;;;4.00;2.33;;;;;14.21;56.71;102067.16;5027298;28;47488;-73
2021/11/08 13:42:44;;;;;;;;;5.67;4.00;;;;;14.23;56.99;102054.81;5027012;28;45638;-73
2021/11/08 13:45:09;;;;;;;;;8.00;2.67;;;;;14.26;56.70;102061.03;5028475;28;45521;-74
2021/11/08 13:47:39;;;;;;;;;5.00;3.33;;;;;14.19;55.43;102053.84;5023098;28;45428;-73
2021/11/08 13:50:12;;;;;;;;;4.33;2.00;;;;;14.13;56.87;102062.63;5026579;28;46459;-73
2021/11/08 13:52:37;;;;;;;;;7.67;4.67;;;;;14.07;57.10;102056.31;5019476;28;46172;-74
2021/11/08 13:55:07;;;;;;;;;11.00;4.00;;;;;14.01;57.13;102062.44;5022638;28;45431;-74
2021/11/08 13:57:38;;;;;;;;;8.00;2.00;;;;;13.99;56.95;102063.25;5033275;28;45601;-73
2021/11/08 14:00:07;;;;;;;;;2.33;2.00;;;;;13.95;56.88;102059.66;5023460;28;46784;-73
2021/11/08 14:02:34;;;;;;;;;7.00;2.00;;;;;14.05;57.61;102055.38;5024979;28;47275;-74
2021/11/08 14:05:00;;;;;;;;;7.00;3.00;;;;;14.14;57.55;102056.44;5028048;28;45404;-73
2021/11/08 14:07:26;;;;;;;;;2.33;2.00;;;;;14.24;56.45;102057.47;5032002;28;45562;-73
2021/11/08 14:09:54;;;;;;;;;4.33;3.00;;;;;14.29;56.74;102052.25;5031090;28;45564;-73
2021/11/08 14:12:21;;;;;;;;;7.67;3.00;;;;;14.27;54.87;102062.81;5025712;28;45484;-73
2021/11/08 14:14:49;;;;;;;;;4.67;3.00;;;;;14.22;55.89;102059.22;5022903;28;45439;-73
2021/11/08 14:17:19;;;;;;;;;6.67;4.00;;;;;14.20;56.16;102063.59;5025553;28;45491;-73
2021/11/08 14:19:51;;;;;;;;;3.67;3.00;;;;;14.24;56.84;102062.78;5024849;28;46293;-74
2021/11/08 14:22:17;;;;;;;;;3.33;2.67;;;;;14.31;56.28;102064.66;5029355;28;45353;-73
2021/11/08 14:24:46;;;;;;;;;4.33;2.00;;;;;14.26;56.52;102052.19;5019137;28;55474;-74
2021/11/08 14:27:17;;;;;;;;;5.00;3.00;;;;;14.29;56.06;102057.56;5033276;28;45482;-74
2021/11/08 14:29:43;;;;;;;;;7.00;2.67;;;;;14.32;56.07;102066.44;5032556;28;47613;-74